createdAt,value
2019-03-12T00:00:18.055Z,9.10
2019-03-12T00:03:02.117Z,9.00
2019-03-12T00:05:51.207Z,9.10
2019-03-12T00:08:27.372Z,8.80
2019-03-12T00:11:17.934Z,8.80
2019-03-12T00:13:54.975Z,8.90
2019-03-12T00:16:45.613Z,8.80
2019-03-12T00:19:21.716Z,8.80
2019-03-12T00:22:12.096Z,8.80
2019-03-12T00:24:55.820Z,8.80
2019-03-12T00:27:45.514Z,8.70
2019-03-12T00:30:21.490Z,8.80
2019-03-12T00:33:12.026Z,8.70
2019-03-12T00:35:54.568Z,8.60
2019-03-12T00:38:49.649Z,8.70
2019-03-12T00:41:45.687Z,8.70
2019-03-12T00:44:42.209Z,8.80
2019-03-12T00:47:38.257Z,9.00
2019-03-12T00:50:27.946Z,9.00
2019-03-12T00:53:04.199Z,9.00
2019-03-12T00:55:53.662Z,9.10
2019-03-12T00:58:37.397Z,9.00
2019-03-12T01:01:33.565Z,9.00
2019-03-12T01:04:30.481Z,8.90
2019-03-12T01:07:20.020Z,8.70
2019-03-12T01:09:56.296Z,8.60
2019-03-12T01:12:46.263Z,8.40
2019-03-12T01:15:23.105Z,8.30
2019-03-12T01:18:13.820Z,8.20
2019-03-12T01:20:51.166Z,8.10
2019-03-12T01:23:41.415Z,8.10
2019-03-12T01:26:18.023Z,8.00
2019-03-12T01:29:08.236Z,7.80
2019-03-12T01:31:51.276Z,7.90
2019-03-12T01:34:40.589Z,7.90
2019-03-12T01:37:17.151Z,7.90
2019-03-12T01:40:07.566Z,7.90
2019-03-12T01:42:44.162Z,8.10
2019-03-12T01:45:34.675Z,8.20
2019-03-12T01:48:10.726Z,8.20
2019-03-12T01:51:01.108Z,7.80
2019-03-12T01:53:43.932Z,7.90
2019-03-12T01:56:38.801Z,7.90
2019-03-12T01:59:27.721Z,7.90
2019-03-12T02:02:04.748Z,7.90
2019-03-12T02:04:53.548Z,7.60
2019-03-12T02:07:30.170Z,7.50
2019-03-12T02:10:21.595Z,7.50
2019-03-12T02:12:58.096Z,7.20
2019-03-12T02:15:41.149Z,7.20
2019-03-12T02:18:23.555Z,7.40
2019-03-12T02:21:06.907Z,7.40
2019-03-12T02:23:49.875Z,7.40
2019-03-12T02:26:33.265Z,7.30
2019-03-12T02:29:15.469Z,7.10
2019-03-12T02:32:11.897Z,7.10
2019-03-12T02:35:07.741Z,6.90
2019-03-12T02:37:57.048Z,6.60
2019-03-12T02:40:33.548Z,6.60
2019-03-12T02:43:23.660Z,6.80
2019-03-12T02:46:00.981Z,7.00
2019-03-12T02:48:50.282Z,7.30
2019-03-12T02:51:33.738Z,7.20
2019-03-12T02:54:17.381Z,7.20
2019-03-12T02:56:59.845Z,7.30
2019-03-12T02:59:43.585Z,7.40
2019-03-12T03:02:32.278Z,7.30
2019-03-12T03:05:15.912Z,7.30
2019-03-12T03:07:59.959Z,7.30
2019-03-12T03:10:42.713Z,7.40
2019-03-12T03:13:31.731Z,7.20
2019-03-12T03:16:08.592Z,7.30
2019-03-12T03:18:58.317Z,7.30
2019-03-12T03:21:41.322Z,7.30
2019-03-12T03:24:24.342Z,7.40
2019-03-12T03:27:07.521Z,7.30
2019-03-12T03:29:50.410Z,7.50
2019-03-12T03:32:32.955Z,7.40
2019-03-12T03:35:15.490Z,7.40
2019-03-12T03:37:58.128Z,7.10
2019-03-12T03:40:47.243Z,7.00
2019-03-12T03:43:30.691Z,6.40
2019-03-12T03:46:20.233Z,6.60
2019-03-12T03:48:56.262Z,6.80
2019-03-12T03:51:46.477Z,6.90
2019-03-12T03:54:23.439Z,6.90
2019-03-12T03:57:13.131Z,7.00
2019-03-12T03:59:49.878Z,6.70
2019-03-12T04:02:40.309Z,6.80
2019-03-12T04:05:24.313Z,6.60
2019-03-12T04:08:07.328Z,6.60
2019-03-12T04:10:50.877Z,6.50
2019-03-12T04:13:34.099Z,6.60
2019-03-12T04:16:17.844Z,6.00
2019-03-12T04:19:00.975Z,6.20
2019-03-12T04:21:44.659Z,5.90
2019-03-12T04:24:26.919Z,6.00
2019-03-12T04:27:09.622Z,6.40
2019-03-12T04:29:52.048Z,6.40
2019-03-12T04:32:35.436Z,6.50
2019-03-12T04:35:27.947Z,6.60
2019-03-12T04:38:07.059Z,6.60
2019-03-12T04:40:56.816Z,6.40
2019-03-12T04:43:33.540Z,6.50
2019-03-12T04:46:23.424Z,6.50
2019-03-12T04:49:07.351Z,6.50
2019-03-12T04:51:57.007Z,6.40
2019-03-12T04:54:40.289Z,5.60
2019-03-12T04:57:29.375Z,5.30
2019-03-12T05:00:12.069Z,5.40
2019-03-12T05:03:01.836Z,5.00
2019-03-12T05:05:38.517Z,4.70
2019-03-12T05:08:27.731Z,4.50
2019-03-12T05:11:11.384Z,4.70
2019-03-12T05:14:20.779Z,4.50
2019-03-12T05:17:09.359Z,4.60
2019-03-12T05:19:52.379Z,4.80
2019-03-12T05:22:35.717Z,4.70
2019-03-12T05:25:19.650Z,5.10
2019-03-12T05:28:03.085Z,5.20
2019-03-12T05:30:45.744Z,5.20
2019-03-12T05:33:29.834Z,5.30
2019-03-12T05:36:12.309Z,5.40
2019-03-12T05:39:02.400Z,5.60
2019-03-12T05:41:57.456Z,5.70
2019-03-12T05:44:47.255Z,5.80
2019-03-12T05:47:30.816Z,5.90
2019-03-12T05:50:29.157Z,6.00
2019-03-12T05:53:26.154Z,5.90
2019-03-12T05:56:21.445Z,5.70
2019-03-12T05:59:16.822Z,5.80
2019-03-12T06:02:06.412Z,5.30
2019-03-12T06:04:42.600Z,5.10
2019-03-12T06:07:33.346Z,5.30
2019-03-12T06:10:17.860Z,5.10
2019-03-12T06:13:07.636Z,5.10
2019-03-12T06:15:44.749Z,5.20
2019-03-12T06:18:35.223Z,5.20
2019-03-12T06:21:11.465Z,5.20
2019-03-12T06:24:02.290Z,5.30
2019-03-12T06:26:39.360Z,5.60
2019-03-12T06:29:30.065Z,5.80
2019-03-12T06:32:08.809Z,6.00
2019-03-12T06:35:01.276Z,6.00
2019-03-12T06:37:55.141Z,6.20
2019-03-12T06:40:48.506Z,6.50
2019-03-12T06:43:46.069Z,6.60
2019-03-12T06:46:26.852Z,6.80
2019-03-12T06:49:21.757Z,7.00
2019-03-12T06:52:14.359Z,7.40
2019-03-12T06:55:22.702Z,7.70
2019-03-12T06:58:29.900Z,8.00
2019-03-12T07:01:32.204Z,8.40
2019-03-12T07:04:25.380Z,8.80
2019-03-12T07:07:11.599Z,9.10
2019-03-12T07:09:55.200Z,9.60
2019-03-12T07:12:48.873Z,10.00
2019-03-12T07:15:42.042Z,10.00
2019-03-12T07:18:49.661Z,9.90
2019-03-12T07:21:27.415Z,10.10
2019-03-12T07:24:25.378Z,10.70
2019-03-12T07:27:06.218Z,11.50
2019-03-12T07:30:00.561Z,12.20
2019-03-12T07:32:38.172Z,12.70
2019-03-12T07:35:31.258Z,13.30
2019-03-12T07:38:27.979Z,14.10
2019-03-12T07:41:22.876Z,13.60
2019-03-12T07:44:02.595Z,14.00
2019-03-12T07:46:49.539Z,14.30
2019-03-12T07:49:50.621Z,14.10
2019-03-12T07:53:01.372Z,14.10
2019-03-12T07:56:14.196Z,14.50
2019-03-12T07:59:08.888Z,14.70
2019-03-12T08:02:00.624Z,15.20
2019-03-12T08:04:44.433Z,15.20
2019-03-12T08:07:50.425Z,15.20
2019-03-12T08:10:28.047Z,15.10
2019-03-12T08:13:19.028Z,14.70
2019-03-12T08:15:57.623Z,14.50
2019-03-12T08:19:01.474Z,14.80
2019-03-12T08:21:49.911Z,14.80
2019-03-12T08:24:41.832Z,14.70
2019-03-12T08:27:19.534Z,14.50
2019-03-12T08:30:19.787Z,14.20
2019-03-12T08:33:03.877Z,14.10
2019-03-12T08:36:01.329Z,14.20
2019-03-12T08:38:58.507Z,14.10
2019-03-12T08:41:55.980Z,14.10
2019-03-12T08:44:49.968Z,14.30
2019-03-12T08:47:45.216Z,14.40
2019-03-12T08:50:30.739Z,14.50
2019-03-12T08:53:38.113Z,14.30
2019-03-12T08:56:36.838Z,14.40
2019-03-12T08:59:37.320Z,14.60
2019-03-12T09:02:48.496Z,14.80
2019-03-12T09:05:49.919Z,15.10
2019-03-12T09:08:47.185Z,15.30
2019-03-12T09:11:31.914Z,15.40
2019-03-12T09:14:27.861Z,15.30
2019-03-12T09:17:29.466Z,15.40
2019-03-12T09:20:43.342Z,15.60
2019-03-12T09:23:42.586Z,15.60
2019-03-12T09:26:35.692Z,15.90
2019-03-12T09:29:23.773Z,16.10
2019-03-12T09:32:37.056Z,16.10
2019-03-12T09:35:34.449Z,15.80
2019-03-12T09:38:21.489Z,15.90
2019-03-12T09:41:29.563Z,15.90
2019-03-12T09:44:13.765Z,16.00
2019-03-12T09:47:10.431Z,16.00
2019-03-12T09:50:06.486Z,15.80
2019-03-12T09:52:53.708Z,15.60
2019-03-12T09:55:55.538Z,15.40
2019-03-12T09:58:47.023Z,15.20
2019-03-12T10:01:42.827Z,15.10
2019-03-12T10:04:50.045Z,14.90
2019-03-12T10:07:30.966Z,15.10
2019-03-12T10:10:38.223Z,15.00
2019-03-12T10:13:26.027Z,14.90
2019-03-12T10:16:32.619Z,14.80
2019-03-12T10:19:25.900Z,15.00
2019-03-12T10:22:27.092Z,15.10
2019-03-12T10:25:34.489Z,15.10
2019-03-12T10:28:15.801Z,15.10
2019-03-12T10:31:07.692Z,15.20
2019-03-12T10:33:54.288Z,15.30
2019-03-12T10:37:11.797Z,15.40
2019-03-12T10:40:22.022Z,15.30
2019-03-12T10:43:21.565Z,15.30
2019-03-12T10:46:12.336Z,15.30
2019-03-12T10:48:55.810Z,15.40
2019-03-12T10:51:52.192Z,15.40
2019-03-12T10:54:48.095Z,15.40
2019-03-12T10:57:43.875Z,15.40
2019-03-12T11:00:34.022Z,15.40
2019-03-12T11:03:10.616Z,15.30
2019-03-12T11:06:01.084Z,15.30
2019-03-12T11:08:44.324Z,15.40
2019-03-12T11:11:41.628Z,15.40
2019-03-12T11:14:36.875Z,15.60
2019-03-12T11:17:26.221Z,15.60
2019-03-12T11:20:02.947Z,15.50
2019-03-12T11:22:52.850Z,15.60
2019-03-12T11:25:29.317Z,15.50
2019-03-12T11:28:20.234Z,15.40
2019-03-12T11:31:03.309Z,15.40
2019-03-12T11:33:58.249Z,15.40
2019-03-12T11:36:55.044Z,15.50
2019-03-12T11:39:44.773Z,15.60
2019-03-12T11:42:28.433Z,15.60
2019-03-12T11:45:20.364Z,15.70
2019-03-12T11:48:08.366Z,15.60
2019-03-12T11:51:07.518Z,15.60
2019-03-12T11:54:04.342Z,15.70
2019-03-12T11:56:48.102Z,15.60
2019-03-12T11:59:37.687Z,15.60
2019-03-12T12:02:14.491Z,15.70
2019-03-12T12:05:04.040Z,15.80
2019-03-12T12:07:47.820Z,15.80
2019-03-12T12:10:30.431Z,15.70
2019-03-12T12:13:14.405Z,15.70
2019-03-12T12:16:03.944Z,15.50
2019-03-12T12:18:47.029Z,15.50
2019-03-12T12:21:29.754Z,15.60
2019-03-12T12:24:13.503Z,15.60
2019-03-12T12:26:56.516Z,15.70
2019-03-12T12:29:39.901Z,15.70
2019-03-12T12:32:22.471Z,15.50
2019-03-12T12:35:06.341Z,15.30
2019-03-12T12:37:49.825Z,15.40
2019-03-12T12:40:33.538Z,15.40
2019-03-12T12:43:23.695Z,15.50
2019-03-12T12:46:06.821Z,15.50
2019-03-12T12:48:56.450Z,15.40
2019-03-12T12:51:32.553Z,15.60
2019-03-12T12:54:22.461Z,15.60
2019-03-12T12:56:58.861Z,15.60
2019-03-12T12:59:48.583Z,15.50
2019-03-12T13:02:24.825Z,15.50
2019-03-12T13:05:15.048Z,15.70
2019-03-12T13:07:55.068Z,15.80
2019-03-12T13:10:46.823Z,15.70
2019-03-12T13:13:24.819Z,15.60
2019-03-12T13:16:25.515Z,15.60
2019-03-12T13:19:20.385Z,15.70
2019-03-12T13:22:15.279Z,15.80
2019-03-12T13:25:11.020Z,15.90
2019-03-12T13:28:07.404Z,15.70
2019-03-12T13:30:56.602Z,15.70
2019-03-12T13:33:33.003Z,15.70
2019-03-12T13:36:25.619Z,15.70
2019-03-12T13:39:03.113Z,15.70
2019-03-12T13:41:55.262Z,15.80
2019-03-12T13:44:38.548Z,15.80
2019-03-12T13:47:29.160Z,15.70
2019-03-12T13:50:05.833Z,15.70
2019-03-12T13:52:55.828Z,15.70
2019-03-12T13:55:32.154Z,15.60
2019-03-12T13:58:22.758Z,15.60
2019-03-12T14:01:06.216Z,15.60
2019-03-12T14:04:10.684Z,15.60
2019-03-12T14:07:00.417Z,15.70
2019-03-12T14:09:56.009Z,15.80
2019-03-12T14:12:45.795Z,15.80
2019-03-12T14:15:37.655Z,15.80
2019-03-12T14:18:14.835Z,15.70
2019-03-12T14:21:06.734Z,15.60
2019-03-12T14:23:53.345Z,15.60
2019-03-12T14:26:42.929Z,15.70
2019-03-12T14:29:19.699Z,15.70
2019-03-12T14:32:11.911Z,15.80
2019-03-12T14:34:56.745Z,15.70
2019-03-12T14:37:39.611Z,15.60
2019-03-12T14:40:22.773Z,15.60
2019-03-12T14:43:18.402Z,15.70
2019-03-12T14:46:13.652Z,15.60
2019-03-12T14:49:09.790Z,15.60
2019-03-12T14:52:12.112Z,15.60
2019-03-12T14:55:07.038Z,15.60
2019-03-12T14:57:56.159Z,15.60
2019-03-12T15:00:32.892Z,15.60
2019-03-12T15:03:23.340Z,15.50
2019-03-12T15:06:13.334Z,15.50
2019-03-12T15:08:49.292Z,15.50
2019-03-12T15:11:38.852Z,15.50
2019-03-12T15:14:23.019Z,15.40
2019-03-12T15:17:11.965Z,15.40
2019-03-12T15:19:48.731Z,15.40
2019-03-12T15:22:38.887Z,15.40
2019-03-12T15:25:15.362Z,15.50
2019-03-12T15:28:05.063Z,15.40
2019-03-12T15:30:48.453Z,15.40
2019-03-12T15:33:39.784Z,15.40
2019-03-12T15:36:29.857Z,15.40
2019-03-12T15:39:06.680Z,15.40
2019-03-12T15:41:58.850Z,15.40
2019-03-12T15:44:42.039Z,15.40
2019-03-12T15:47:38.818Z,15.30
2019-03-12T15:50:34.917Z,15.30
2019-03-12T15:53:25.068Z,15.30
2019-03-12T15:56:01.930Z,15.20
2019-03-12T15:58:52.725Z,15.20
2019-03-12T16:01:28.893Z,15.10
2019-03-12T16:04:19.244Z,15.10
2019-03-12T16:07:01.756Z,15.10
2019-03-12T16:09:50.827Z,15.10
2019-03-12T16:12:33.816Z,15.10
2019-03-12T16:15:24.671Z,15.00
2019-03-12T16:18:08.202Z,15.10
2019-03-12T16:20:58.229Z,15.00
2019-03-12T16:23:36.391Z,15.10
2019-03-12T16:26:26.512Z,15.10
2019-03-12T16:29:03.479Z,15.00
2019-03-12T16:31:53.281Z,14.90
2019-03-12T16:34:36.574Z,14.80
2019-03-12T16:37:33.293Z,14.70
2019-03-12T16:40:16.995Z,14.60
2019-03-12T16:43:13.356Z,14.60
2019-03-12T16:46:09.146Z,14.50
2019-03-12T16:49:04.556Z,14.50
2019-03-12T16:51:53.968Z,14.40
2019-03-12T16:54:30.807Z,14.30
2019-03-12T16:57:20.061Z,14.30
2019-03-12T16:59:57.081Z,14.20
2019-03-12T17:02:46.960Z,14.20
2019-03-12T17:05:30.591Z,14.20
2019-03-12T17:08:34.077Z,14.20
2019-03-12T17:11:29.103Z,14.10
2019-03-12T17:14:18.588Z,14.00
2019-03-12T17:16:55.265Z,14.00
2019-03-12T17:19:45.457Z,13.90
2019-03-12T17:22:29.179Z,13.80
2019-03-12T17:25:18.948Z,13.80
2019-03-12T17:27:55.966Z,13.60
2019-03-12T17:30:46.097Z,13.50
2019-03-12T17:33:22.362Z,13.40
2019-03-12T17:36:12.411Z,13.40
2019-03-12T17:39:01.875Z,13.30
2019-03-12T17:41:58.804Z,13.30
2019-03-12T17:44:55.577Z,13.30
2019-03-12T17:47:51.290Z,13.20
2019-03-12T17:50:40.547Z,13.20
2019-03-12T17:53:24.240Z,13.10
2019-03-12T17:56:14.731Z,13.00
2019-03-12T17:58:51.744Z,12.90
2019-03-12T18:01:41.530Z,12.80
2019-03-12T18:04:17.920Z,12.80
2019-03-12T18:07:07.534Z,12.70
2019-03-12T18:09:43.969Z,12.70
2019-03-12T18:12:34.083Z,12.60
2019-03-12T18:15:20.044Z,12.60
2019-03-12T18:18:15.606Z,12.50
2019-03-12T18:21:11.471Z,12.40
2019-03-12T18:24:01.690Z,12.30
2019-03-12T18:26:45.142Z,12.30
2019-03-12T18:29:29.106Z,12.30
2019-03-12T18:32:18.151Z,12.30
2019-03-12T18:34:54.874Z,12.30
2019-03-12T18:37:45.924Z,12.20
2019-03-12T18:40:23.635Z,12.10
2019-03-12T18:43:14.945Z,12.00
2019-03-12T18:45:52.023Z,11.90
2019-03-12T18:48:44.534Z,11.90
2019-03-12T18:51:19.519Z,11.90
2019-03-12T18:54:09.219Z,11.80
2019-03-12T18:56:45.392Z,11.80
2019-03-12T18:59:42.079Z,11.70
2019-03-12T19:02:31.393Z,11.70
2019-03-12T19:05:08.018Z,11.60
2019-03-12T19:07:57.257Z,11.40
2019-03-12T19:10:40.491Z,11.40
2019-03-12T19:13:29.707Z,11.20
2019-03-12T19:16:06.816Z,11.10
2019-03-12T19:18:56.513Z,11.00
2019-03-12T19:21:39.951Z,11.00
2019-03-12T19:24:28.993Z,11.10
2019-03-12T19:27:12.532Z,11.10
2019-03-12T19:30:11.571Z,11.00
2019-03-12T19:33:27.135Z,11.10
2019-03-12T19:36:03.835Z,11.10
2019-03-12T19:38:54.288Z,11.00
2019-03-12T19:41:31.389Z,11.20
2019-03-12T19:44:22.910Z,11.30
2019-03-12T19:46:59.929Z,11.40
2019-03-12T19:49:49.195Z,11.40
2019-03-12T19:52:26.265Z,11.30
2019-03-12T19:55:20.072Z,11.30
2019-03-12T19:58:02.882Z,11.30
2019-03-12T20:00:58.153Z,11.30
2019-03-12T20:03:53.521Z,11.30
2019-03-12T20:06:49.962Z,11.30
2019-03-12T20:09:50.516Z,11.20
2019-03-12T20:13:01.761Z,11.20
2019-03-12T20:16:33.889Z,11.20
2019-03-12T20:19:36.024Z,11.10
2019-03-12T20:23:01.138Z,11.10
2019-03-12T20:25:55.654Z,11.00
2019-03-12T20:29:13.962Z,10.90
2019-03-12T20:32:37.907Z,10.90
2019-03-12T20:35:50.524Z,10.90
2019-03-12T20:38:33.518Z,10.90
2019-03-12T20:41:59.315Z,10.80
2019-03-12T20:45:19.600Z,10.70
2019-03-12T20:48:38.817Z,10.60
2019-03-12T20:51:58.243Z,10.70
2019-03-12T20:55:29.330Z,10.70
2019-03-12T20:58:37.823Z,10.70
2019-03-12T21:01:53.084Z,10.50
2019-03-12T21:05:01.166Z,10.40
2019-03-12T21:08:04.693Z,10.70
2019-03-12T21:10:53.479Z,10.50
2019-03-12T21:13:46.150Z,10.60
2019-03-12T21:16:49.765Z,10.70
2019-03-12T21:19:55.369Z,10.70
2019-03-12T21:22:47.715Z,10.80
2019-03-12T21:25:37.595Z,10.70
2019-03-12T21:28:38.778Z,10.60
2019-03-12T21:31:28.222Z,10.60
2019-03-12T21:34:05.371Z,10.50
2019-03-12T21:36:57.676Z,10.50
2019-03-12T21:39:36.381Z,10.40
2019-03-12T21:42:26.057Z,10.40
2019-03-12T21:45:09.796Z,10.40
2019-03-12T21:47:52.775Z,10.50
2019-03-12T21:50:36.485Z,10.40
2019-03-12T21:53:20.548Z,10.50
2019-03-12T21:56:10.950Z,10.50
2019-03-12T21:58:55.344Z,10.60
2019-03-12T22:01:46.079Z,10.40
2019-03-12T22:04:23.998Z,10.30
2019-03-12T22:07:13.921Z,10.40
2019-03-12T22:09:50.342Z,10.40
2019-03-12T22:12:39.859Z,10.40
2019-03-12T22:15:18.829Z,10.30
2019-03-12T22:18:08.491Z,10.40
2019-03-12T22:20:51.570Z,10.30
2019-03-12T22:23:49.681Z,10.30
2019-03-12T22:26:45.435Z,10.30
2019-03-12T22:29:41.348Z,10.20
2019-03-12T22:32:36.315Z,10.20
2019-03-12T22:35:32.166Z,10.10
2019-03-12T22:38:27.381Z,10.10
2019-03-12T22:41:22.479Z,10.00
2019-03-12T22:44:12.575Z,9.90
2019-03-12T22:46:49.138Z,9.90
2019-03-12T22:49:45.394Z,9.80
2019-03-12T22:52:40.411Z,9.80
2019-03-12T22:55:23.811Z,9.80
2019-03-12T22:58:13.027Z,9.70
2019-03-12T23:01:14.196Z,9.80
2019-03-12T23:04:21.510Z,9.80
2019-03-12T23:07:15.731Z,9.70
2019-03-12T23:10:06.613Z,9.60
2019-03-12T23:12:44.193Z,9.60
2019-03-12T23:15:35.240Z,9.60
2019-03-12T23:18:11.411Z,9.50
2019-03-12T23:21:01.191Z,9.40
2019-03-12T23:23:44.404Z,9.30
2019-03-12T23:26:27.468Z,9.40
2019-03-12T23:29:16.641Z,9.30
2019-03-12T23:31:53.189Z,9.40
2019-03-12T23:34:43.645Z,9.50
2019-03-12T23:37:26.775Z,9.40
2019-03-12T23:40:19.328Z,9.40
2019-03-12T23:42:55.889Z,9.50
2019-03-12T23:45:45.424Z,9.50
2019-03-12T23:48:28.335Z,9.40
2019-03-12T23:51:24.839Z,9.40
2019-03-12T23:54:20.464Z,9.40
2019-03-12T23:57:16.653Z,9.50
